createdAt,value
2018-10-04T00:00:22.646Z,0.00
2018-10-04T00:01:22.706Z,0.00
2018-10-04T00:02:22.605Z,0.00
2018-10-04T00:03:22.611Z,0.00
2018-10-04T00:04:22.557Z,0.00
2018-10-04T00:05:22.665Z,0.00
2018-10-04T00:06:22.489Z,0.00
2018-10-04T00:07:22.551Z,0.00
2018-10-04T00:08:22.441Z,0.00
2018-10-04T00:09:22.458Z,0.00
2018-10-04T00:10:22.391Z,0.00
2018-10-04T00:11:23.386Z,0.00
2018-10-04T00:12:22.327Z,0.00
2018-10-04T00:13:22.375Z,0.00
2018-10-04T00:14:22.262Z,0.00
2018-10-04T00:15:22.283Z,0.00
2018-10-04T00:16:22.227Z,0.00
2018-10-04T00:17:22.200Z,0.00
2018-10-04T00:18:22.158Z,0.00
2018-10-04T00:19:22.213Z,0.00
2018-10-04T00:20:22.098Z,0.00
2018-10-04T00:21:24.178Z,0.00
2018-10-04T00:22:22.041Z,0.00
2018-10-04T00:23:23.061Z,0.00
2018-10-04T00:24:21.993Z,0.00
2018-10-04T00:25:22.047Z,0.00
2018-10-04T00:26:21.930Z,0.00
2018-10-04T00:27:21.960Z,0.00
2018-10-04T00:28:21.875Z,0.00
2018-10-04T00:29:21.875Z,0.00
2018-10-04T00:30:21.826Z,0.00
2018-10-04T00:31:21.886Z,0.00
2018-10-04T00:32:21.764Z,0.00
2018-10-04T00:33:21.804Z,0.00
2018-10-04T00:34:21.712Z,0.00
2018-10-04T00:35:21.707Z,0.00
2018-10-04T00:36:21.660Z,0.00
2018-10-04T00:37:21.720Z,0.00
2018-10-04T00:38:21.611Z,0.00
2018-10-04T00:39:21.628Z,0.00
2018-10-04T00:40:21.550Z,0.00
2018-10-04T00:41:21.549Z,0.00
2018-10-04T00:42:21.494Z,0.00
2018-10-04T00:43:21.555Z,0.00
2018-10-04T00:44:21.443Z,0.00
2018-10-04T00:45:21.469Z,0.00
2018-10-04T00:46:21.385Z,0.00
2018-10-04T00:47:21.380Z,0.00
2018-10-04T00:48:21.323Z,0.00
2018-10-04T00:49:21.396Z,0.00
2018-10-04T00:50:21.265Z,0.00
2018-10-04T00:51:22.326Z,0.00
2018-10-04T00:52:21.218Z,0.00
2018-10-04T00:53:21.218Z,0.00
2018-10-04T00:54:21.163Z,0.00
2018-10-04T00:55:21.237Z,0.00
2018-10-04T00:56:21.101Z,0.00
2018-10-04T00:57:21.147Z,0.00
2018-10-04T00:58:21.052Z,0.00
2018-10-04T00:59:21.057Z,0.00
2018-10-04T01:00:21.002Z,0.00
2018-10-04T01:01:21.997Z,0.00
2018-10-04T01:02:20.945Z,0.00
2018-10-04T01:03:20.985Z,0.00
2018-10-04T01:04:20.892Z,0.00
2018-10-04T01:05:21.007Z,0.00
2018-10-04T01:06:20.825Z,0.00
2018-10-04T01:07:20.907Z,0.00
2018-10-04T01:08:20.766Z,0.00
2018-10-04T01:09:20.816Z,0.00
2018-10-04T01:10:20.726Z,0.00
2018-10-04T01:11:21.747Z,0.00
2018-10-04T01:12:20.674Z,0.00
2018-10-04T01:13:20.742Z,0.00
2018-10-04T01:14:20.614Z,0.00
2018-10-04T01:15:20.652Z,0.00
2018-10-04T01:16:20.550Z,0.00
2018-10-04T01:17:21.597Z,0.00
2018-10-04T01:18:20.512Z,0.00
2018-10-04T01:19:21.517Z,0.00
2018-10-04T01:20:20.433Z,0.00
2018-10-04T01:21:20.499Z,0.00
2018-10-04T01:22:20.383Z,0.00
2018-10-04T01:23:20.416Z,0.00
2018-10-04T01:24:20.326Z,0.00
2018-10-04T01:25:20.321Z,0.00
2018-10-04T01:26:20.284Z,0.00
2018-10-04T01:27:21.347Z,0.00
2018-10-04T01:28:20.216Z,0.00
2018-10-04T01:29:20.236Z,0.00
2018-10-04T01:30:20.159Z,0.00
2018-10-04T01:31:20.175Z,0.00
2018-10-04T01:32:20.098Z,0.00
2018-10-04T01:33:20.178Z,0.00
2018-10-04T01:34:20.042Z,0.00
2018-10-04T01:35:20.091Z,0.00
2018-10-04T01:36:20.003Z,0.00
2018-10-04T01:37:19.988Z,0.00
2018-10-04T01:38:19.930Z,0.00
2018-10-04T01:39:20.004Z,0.00
2018-10-04T01:40:19.916Z,0.00
2018-10-04T01:41:19.911Z,0.00
2018-10-04T01:42:19.819Z,0.00
2018-10-04T01:43:19.827Z,0.00
2018-10-04T01:44:19.767Z,0.00
2018-10-04T01:45:19.839Z,0.00
2018-10-04T01:46:19.715Z,0.00
2018-10-04T01:47:19.746Z,0.00
2018-10-04T01:48:19.665Z,0.00
2018-10-04T01:49:19.658Z,0.00
2018-10-04T01:50:19.601Z,0.00
2018-10-04T01:51:20.594Z,0.00
2018-10-04T01:52:19.549Z,0.00
2018-10-04T01:53:19.588Z,0.00
2018-10-04T01:54:19.486Z,0.00
2018-10-04T01:55:19.496Z,0.00
2018-10-04T01:56:19.429Z,0.00
2018-10-04T01:57:19.511Z,0.00
2018-10-04T01:58:19.389Z,0.00
2018-10-04T01:59:19.428Z,0.00
2018-10-04T02:00:19.327Z,0.00
2018-10-04T02:01:19.338Z,0.00
2018-10-04T02:02:19.265Z,0.00
2018-10-04T02:03:19.347Z,0.00
2018-10-04T02:04:19.202Z,0.00
2018-10-04T02:05:19.253Z,0.00
2018-10-04T02:06:19.166Z,0.00
2018-10-04T02:07:19.175Z,0.00
2018-10-04T02:08:19.098Z,0.00
2018-10-04T02:09:19.189Z,0.00
2018-10-04T02:10:19.040Z,0.00
2018-10-04T02:11:19.098Z,0.00
2018-10-04T02:12:18.991Z,0.00
2018-10-04T02:13:19.010Z,0.00
2018-10-04T02:14:18.930Z,0.00
2018-10-04T02:15:19.026Z,0.00
2018-10-04T02:16:18.883Z,0.00
2018-10-04T02:17:18.937Z,0.00
2018-10-04T02:18:18.829Z,0.00
2018-10-04T02:19:18.848Z,0.00
2018-10-04T02:20:18.764Z,0.00
2018-10-04T02:21:18.755Z,0.00
2018-10-04T02:22:18.710Z,0.00
2018-10-04T02:23:18.770Z,0.00
2018-10-04T02:24:18.681Z,0.00
2018-10-04T02:25:18.671Z,0.00
2018-10-04T02:26:18.602Z,0.00
2018-10-04T02:27:18.591Z,0.00
2018-10-04T02:28:18.545Z,0.00
2018-10-04T02:29:18.616Z,0.00
2018-10-04T02:30:18.487Z,0.00
2018-10-04T02:31:18.516Z,0.00
2018-10-04T02:32:18.425Z,0.00
2018-10-04T02:33:18.425Z,0.00
2018-10-04T02:34:18.368Z,0.00
2018-10-04T02:35:18.445Z,0.00
2018-10-04T02:36:18.318Z,0.00
2018-10-04T02:37:18.349Z,0.00
2018-10-04T02:38:18.257Z,0.00
2018-10-04T02:39:18.261Z,0.00
2018-10-04T02:40:18.201Z,0.00
2018-10-04T02:41:18.275Z,0.00
2018-10-04T02:42:18.173Z,0.00
2018-10-04T02:43:18.187Z,0.00
2018-10-04T02:44:18.093Z,0.00
2018-10-04T02:45:18.098Z,0.00
2018-10-04T02:46:18.032Z,0.00
2018-10-04T02:47:18.113Z,0.00
2018-10-04T02:48:17.985Z,0.00
2018-10-04T02:49:18.033Z,0.00
2018-10-04T02:50:17.925Z,0.00
2018-10-04T02:51:17.908Z,0.00
2018-10-04T02:52:17.871Z,0.00
2018-10-04T02:53:17.842Z,0.00
2018-10-04T02:54:17.820Z,0.00
2018-10-04T02:55:17.796Z,0.00
2018-10-04T02:56:17.763Z,0.00
2018-10-04T02:57:17.724Z,0.00
2018-10-04T02:58:17.704Z,0.00
2018-10-04T02:59:17.679Z,0.00
2018-10-04T03:00:17.649Z,0.00
2018-10-04T03:01:17.626Z,0.00
2018-10-04T03:02:17.598Z,0.00
2018-10-04T03:03:17.565Z,0.00
2018-10-04T03:04:17.535Z,0.00
2018-10-04T03:05:17.509Z,0.00
2018-10-04T03:06:17.478Z,0.00
2018-10-04T03:07:17.457Z,0.00
2018-10-04T03:08:17.426Z,0.00
2018-10-04T03:09:17.390Z,0.00
2018-10-04T03:10:17.376Z,0.00
2018-10-04T03:11:17.343Z,0.00
2018-10-04T03:12:17.308Z,0.00
2018-10-04T03:13:17.277Z,0.00
2018-10-04T03:14:17.252Z,0.00
2018-10-04T03:15:17.229Z,0.00
2018-10-04T03:16:17.229Z,0.00
2018-10-04T03:17:17.269Z,0.00
2018-10-04T03:18:17.145Z,0.00
2018-10-04T03:19:17.121Z,0.00
2018-10-04T03:20:17.142Z,0.00
2018-10-04T03:21:17.130Z,0.00
2018-10-04T03:22:17.046Z,0.00
2018-10-04T03:23:17.010Z,0.00
2018-10-04T03:24:16.977Z,0.00
2018-10-04T03:25:16.950Z,0.00
2018-10-04T03:26:16.921Z,0.00
2018-10-04T03:27:16.892Z,0.00
2018-10-04T03:28:16.931Z,0.00
2018-10-04T03:29:16.916Z,0.00
2018-10-04T03:30:16.919Z,0.00
2018-10-04T03:31:16.798Z,0.00
2018-10-04T03:32:16.766Z,0.00
2018-10-04T03:33:16.728Z,0.00
2018-10-04T03:34:16.702Z,0.00
2018-10-04T03:35:16.669Z,0.00
2018-10-04T03:36:16.647Z,0.00
2018-10-04T03:37:16.621Z,0.00
2018-10-04T03:38:16.685Z,0.00
2018-10-04T03:39:16.562Z,0.00
2018-10-04T03:40:16.599Z,0.00
2018-10-04T03:41:16.506Z,0.00
2018-10-04T03:42:16.513Z,0.00
2018-10-04T03:43:16.450Z,0.00
2018-10-04T03:44:16.583Z,0.00
2018-10-04T03:45:16.392Z,0.00
2018-10-04T03:46:16.456Z,0.00
2018-10-04T03:47:16.340Z,0.00
2018-10-04T03:48:16.356Z,0.00
2018-10-04T03:49:16.277Z,0.00
2018-10-04T03:50:18.301Z,0.00
2018-10-04T03:51:16.226Z,0.00
2018-10-04T03:52:17.293Z,0.00
2018-10-04T03:53:16.173Z,0.00
2018-10-04T03:54:16.187Z,0.00
2018-10-04T03:55:16.124Z,0.00
2018-10-04T03:56:16.196Z,0.00
2018-10-04T03:57:16.057Z,0.00
2018-10-04T03:58:17.140Z,0.00
2018-10-04T03:59:16.009Z,0.00
2018-10-04T04:00:16.018Z,0.00
2018-10-04T04:01:15.944Z,0.00
2018-10-04T04:02:16.028Z,0.00
2018-10-04T04:03:15.896Z,0.00
2018-10-04T04:04:15.944Z,0.00
2018-10-04T04:05:15.841Z,0.00
2018-10-04T04:06:15.851Z,0.00
2018-10-04T04:07:15.781Z,0.00
2018-10-04T04:08:15.865Z,0.00
2018-10-04T04:09:15.734Z,0.00
2018-10-04T04:10:15.777Z,0.00
2018-10-04T04:11:15.664Z,0.00
2018-10-04T04:12:16.715Z,0.00
2018-10-04T04:13:15.613Z,0.00
2018-10-04T04:14:15.597Z,0.00
2018-10-04T04:15:15.559Z,0.00
2018-10-04T04:16:15.621Z,0.00
2018-10-04T04:17:15.497Z,0.00
2018-10-04T04:18:15.530Z,0.00
2018-10-04T04:19:15.449Z,0.00
2018-10-04T04:20:15.443Z,0.00
2018-10-04T04:21:15.399Z,0.00
2018-10-04T04:22:15.428Z,0.00
2018-10-04T04:23:15.373Z,0.00
2018-10-04T04:24:15.371Z,0.00
2018-10-04T04:25:15.382Z,0.00
2018-10-04T04:26:15.317Z,0.00
2018-10-04T04:27:15.232Z,0.00
2018-10-04T04:28:15.298Z,0.00
2018-10-04T04:29:15.186Z,0.00
2018-10-04T04:30:15.212Z,0.00
2018-10-04T04:31:15.124Z,0.00
2018-10-04T04:32:16.142Z,0.00
2018-10-04T04:33:15.073Z,0.00
2018-10-04T04:34:15.138Z,0.00
2018-10-04T04:35:15.016Z,0.00
2018-10-04T04:36:16.070Z,0.00
2018-10-04T04:37:14.966Z,0.00
2018-10-04T04:38:14.955Z,0.00
2018-10-04T04:39:14.898Z,0.00
2018-10-04T04:40:14.978Z,0.00
2018-10-04T04:41:14.843Z,0.00
2018-10-04T04:42:14.884Z,0.00
2018-10-04T04:43:14.794Z,0.00
2018-10-04T04:44:14.798Z,0.00
2018-10-04T04:45:14.741Z,0.00
2018-10-04T04:46:14.810Z,0.00
2018-10-04T04:47:14.746Z,0.00
2018-10-04T04:48:14.726Z,0.00
2018-10-04T04:49:14.630Z,0.00
2018-10-04T04:50:15.657Z,0.00
2018-10-04T04:51:14.599Z,0.00
2018-10-04T04:52:14.650Z,0.00
2018-10-04T04:53:14.514Z,0.00
2018-10-04T04:54:14.561Z,0.00
2018-10-04T04:55:14.464Z,0.00
2018-10-04T04:56:14.467Z,0.00
2018-10-04T04:57:14.409Z,0.00
2018-10-04T04:58:14.481Z,0.00
2018-10-04T04:59:14.355Z,0.00
2018-10-04T05:00:14.419Z,0.00
2018-10-04T05:01:14.297Z,0.00
2018-10-04T05:02:14.308Z,0.00
2018-10-04T05:03:14.243Z,0.00
2018-10-04T05:04:16.265Z,0.00
2018-10-04T05:05:14.194Z,0.00
2018-10-04T05:06:15.316Z,0.00
2018-10-04T05:07:14.133Z,0.00
2018-10-04T05:08:14.140Z,0.00
2018-10-04T05:09:14.079Z,0.00
2018-10-04T05:10:14.188Z,0.00
2018-10-04T05:11:14.030Z,0.00
2018-10-04T05:12:14.067Z,0.00
2018-10-04T05:13:13.978Z,0.00
2018-10-04T05:14:13.990Z,0.00
2018-10-04T05:15:13.917Z,0.00
2018-10-04T05:16:13.987Z,0.00
2018-10-04T05:17:13.863Z,0.00
2018-10-04T05:18:13.907Z,0.00
2018-10-04T05:19:13.806Z,0.00
2018-10-04T05:20:13.812Z,0.00
2018-10-04T05:21:13.910Z,0.00
2018-10-04T05:22:13.878Z,0.00
2018-10-04T05:23:13.699Z,0.00
2018-10-04T05:24:13.741Z,0.00
2018-10-04T05:25:13.637Z,0.00
2018-10-04T05:26:13.657Z,0.00
2018-10-04T05:27:13.581Z,0.00
2018-10-04T05:28:14.595Z,0.00
2018-10-04T05:29:13.530Z,0.00
2018-10-04T05:30:13.571Z,0.00
2018-10-04T05:31:13.467Z,0.00
2018-10-04T05:32:13.485Z,0.00
2018-10-04T05:33:13.525Z,0.00
2018-10-04T05:34:14.478Z,0.00
2018-10-04T05:35:13.431Z,0.00
2018-10-04T05:36:26.006Z,0.00
2018-10-04T05:37:13.434Z,0.00
2018-10-04T05:38:19.931Z,0.00
2018-10-04T05:39:13.244Z,0.00
2018-10-04T05:40:28.960Z,0.00
2018-10-04T05:41:13.183Z,0.00
2018-10-04T05:42:25.097Z,0.00
2018-10-04T05:43:13.143Z,0.00
2018-10-04T05:44:14.239Z,0.00
2018-10-04T05:45:13.151Z,0.00
2018-10-04T05:46:14.256Z,0.00
2018-10-04T05:47:13.029Z,0.00
2018-10-04T05:48:15.185Z,0.00
2018-10-04T05:49:12.985Z,0.00
2018-10-04T05:50:14.169Z,0.00
2018-10-04T05:51:12.939Z,5.63
2018-10-04T05:52:18.596Z,5.63
2018-10-04T05:53:12.877Z,5.63
2018-10-04T05:54:24.545Z,5.63
2018-10-04T05:55:12.805Z,5.63
2018-10-04T05:56:42.477Z,5.63
2018-10-04T05:57:12.744Z,5.63
2018-10-04T05:58:29.488Z,5.63
2018-10-04T05:59:12.759Z,5.63
2018-10-04T06:00:14.765Z,5.63
2018-10-04T06:01:12.631Z,5.63
2018-10-04T06:02:42.530Z,5.63
2018-10-04T06:03:12.573Z,11.25
2018-10-04T06:04:50.581Z,11.25
2018-10-04T06:05:12.522Z,11.25
2018-10-04T06:06:12.491Z,11.25
2018-10-04T06:07:48.494Z,11.25
2018-10-04T06:08:12.435Z,11.25
2018-10-04T06:09:12.405Z,11.25
2018-10-04T06:10:19.019Z,11.25
2018-10-04T06:11:12.350Z,11.25
2018-10-04T06:12:14.431Z,11.25
2018-10-04T06:13:12.295Z,11.25
2018-10-04T06:14:13.317Z,11.25
2018-10-04T06:15:12.384Z,11.25
2018-10-04T06:16:14.252Z,16.88
2018-10-04T06:17:12.182Z,16.88
2018-10-04T06:18:22.970Z,16.88
2018-10-04T06:19:12.136Z,16.88
2018-10-04T06:20:33.118Z,16.88
2018-10-04T06:21:12.071Z,16.88
2018-10-04T06:22:19.013Z,16.88
2018-10-04T06:23:12.017Z,16.88
2018-10-04T06:24:27.013Z,16.88
2018-10-04T06:25:11.962Z,16.88
2018-10-04T06:26:16.986Z,22.50
2018-10-04T06:27:11.905Z,22.50
2018-10-04T06:28:22.507Z,22.50
2018-10-04T06:29:11.851Z,22.50
2018-10-04T06:30:11.897Z,22.50
2018-10-04T06:31:11.830Z,28.13
2018-10-04T06:32:12.822Z,28.13
2018-10-04T06:33:11.731Z,28.13
2018-10-04T06:34:18.462Z,28.13
2018-10-04T06:35:11.740Z,28.13
2018-10-04T06:36:13.772Z,28.13
2018-10-04T06:37:11.627Z,28.13
2018-10-04T06:38:45.531Z,28.13
2018-10-04T06:39:11.575Z,28.13
2018-10-04T06:40:11.604Z,28.13
2018-10-04T06:41:18.424Z,28.13
2018-10-04T06:42:11.493Z,28.13
2018-10-04T06:43:27.568Z,28.13
2018-10-04T06:44:11.510Z,28.13
2018-10-04T06:45:18.041Z,28.13
2018-10-04T06:46:11.392Z,28.13
2018-10-04T06:49:12.513Z,28.13
2018-10-04T06:50:29.233Z,28.13
2018-10-04T06:51:12.431Z,28.13
2018-10-04T06:52:13.475Z,33.75
2018-10-04T06:53:12.391Z,33.75
2018-10-04T06:54:24.250Z,33.75
2018-10-04T06:55:12.331Z,33.75
2018-10-04T06:56:25.194Z,33.75
2018-10-04T06:57:12.283Z,33.75
2018-10-04T06:58:49.258Z,28.13
2018-10-04T06:59:12.207Z,28.13
2018-10-04T07:00:12.187Z,28.13
2018-10-04T07:01:12.205Z,28.13
2018-10-04T07:02:12.129Z,28.13
2018-10-04T07:03:17.232Z,28.13
2018-10-04T07:04:12.076Z,28.13
2018-10-04T07:05:14.172Z,28.13
2018-10-04T07:06:12.062Z,28.13
2018-10-04T07:07:12.148Z,28.13
2018-10-04T07:08:11.962Z,33.75
2018-10-04T07:09:11.935Z,28.13
2018-10-04T07:10:28.771Z,28.13
2018-10-04T07:11:11.877Z,33.75
2018-10-04T07:12:11.969Z,33.75
2018-10-04T07:13:11.839Z,33.75
2018-10-04T07:14:12.907Z,39.38
2018-10-04T07:15:11.777Z,39.38
2018-10-04T07:16:13.841Z,39.38
2018-10-04T07:17:11.707Z,39.38
2018-10-04T07:18:11.808Z,45.00
2018-10-04T07:19:11.656Z,45.00
2018-10-04T07:20:11.819Z,45.00
2018-10-04T07:21:11.598Z,45.00
2018-10-04T07:22:24.333Z,45.00
2018-10-04T07:23:11.542Z,50.63
2018-10-04T07:24:11.643Z,50.63
2018-10-04T07:25:11.486Z,50.63
2018-10-04T07:26:17.187Z,45.00
2018-10-04T07:27:11.431Z,45.00
2018-10-04T07:28:13.477Z,45.00
2018-10-04T07:29:11.381Z,45.00
2018-10-04T07:30:11.428Z,45.00
2018-10-04T07:31:11.322Z,50.63
2018-10-04T07:32:12.365Z,56.25
2018-10-04T07:33:11.263Z,50.63
2018-10-04T07:34:11.237Z,45.00
2018-10-04T07:35:12.335Z,39.38
2018-10-04T07:36:11.176Z,39.38
2018-10-04T07:37:24.305Z,45.00
2018-10-04T07:38:11.126Z,45.00
2018-10-04T07:39:15.740Z,45.00
2018-10-04T07:40:11.067Z,50.63
2018-10-04T07:41:11.150Z,50.63
2018-10-04T07:42:11.050Z,50.63
2018-10-04T07:43:11.061Z,56.25
2018-10-04T07:44:10.957Z,56.25
2018-10-04T07:45:11.089Z,61.88
2018-10-04T07:46:10.906Z,56.25
2018-10-04T07:47:12.007Z,56.25
2018-10-04T07:48:10.852Z,61.88
2018-10-04T07:49:10.895Z,56.25
2018-10-04T07:50:10.831Z,50.63
2018-10-04T07:51:23.722Z,50.63
2018-10-04T07:52:10.735Z,50.63
2018-10-04T07:53:11.848Z,45.00
2018-10-04T07:54:10.696Z,45.00
2018-10-04T07:55:10.726Z,56.25
2018-10-04T07:56:10.622Z,56.25
2018-10-04T07:57:10.748Z,50.63
2018-10-04T07:58:10.568Z,50.63
2018-10-04T07:59:10.652Z,50.63
2018-10-04T08:00:10.567Z,56.25
2018-10-04T08:01:10.566Z,56.25
2018-10-04T08:02:10.464Z,50.63
2018-10-04T08:03:22.255Z,50.63
2018-10-04T08:04:10.410Z,56.25
2018-10-04T08:05:10.373Z,56.25
2018-10-04T08:06:10.649Z,50.63
2018-10-04T08:07:10.318Z,50.63
2018-10-04T08:08:10.409Z,50.63
2018-10-04T08:09:10.266Z,61.88
2018-10-04T08:10:15.239Z,61.88
2018-10-04T08:11:10.205Z,56.25
2018-10-04T08:12:12.300Z,56.25
2018-10-04T08:13:10.152Z,67.50
2018-10-04T08:14:10.249Z,67.50
2018-10-04T08:15:10.093Z,67.50
2018-10-04T08:16:10.071Z,73.13
2018-10-04T08:17:10.201Z,78.75
2018-10-04T08:18:10.070Z,78.75
2018-10-04T08:19:11.101Z,78.75
2018-10-04T08:20:09.948Z,78.75
2018-10-04T08:21:22.811Z,73.13
2018-10-04T08:22:09.896Z,73.13
2018-10-04T08:23:10.041Z,73.13
2018-10-04T08:24:09.842Z,78.75
2018-10-04T08:25:15.745Z,84.38
2018-10-04T08:26:09.786Z,90.00
2018-10-04T08:27:10.962Z,90.00
2018-10-04T08:28:09.731Z,90.00
2018-10-04T08:29:09.814Z,78.75
2018-10-04T08:30:09.671Z,67.50
2018-10-04T08:31:09.664Z,67.50
2018-10-04T08:32:09.629Z,73.13
2018-10-04T08:33:09.736Z,84.38
2018-10-04T08:34:09.573Z,101.25
2018-10-04T08:35:09.587Z,101.25
2018-10-04T08:36:09.501Z,90.00
2018-10-04T08:37:09.486Z,73.13
2018-10-04T08:38:09.451Z,78.75
2018-10-04T08:39:09.462Z,95.63
2018-10-04T08:40:09.392Z,90.00
2018-10-04T08:41:09.369Z,90.00
2018-10-04T08:42:09.413Z,78.75
2018-10-04T08:43:09.341Z,67.50
2018-10-04T08:44:09.292Z,67.50
2018-10-04T08:45:09.260Z,67.50
2018-10-04T08:46:09.267Z,84.38
2018-10-04T08:47:09.305Z,106.88
2018-10-04T08:48:09.230Z,123.75
2018-10-04T08:49:09.147Z,123.75
2018-10-04T08:50:09.117Z,140.63
2018-10-04T08:51:09.091Z,129.38
2018-10-04T08:52:09.097Z,123.75
2018-10-04T08:53:09.032Z,129.38
2018-10-04T08:54:09.033Z,140.63
2018-10-04T08:55:08.974Z,140.63
2018-10-04T08:56:08.952Z,140.63
2018-10-04T08:57:08.917Z,157.50
2018-10-04T08:58:08.916Z,163.13
2018-10-04T08:59:08.863Z,168.75
2018-10-04T09:00:08.836Z,168.75
2018-10-04T09:01:08.843Z,174.38
2018-10-04T09:02:08.784Z,185.63
2018-10-04T09:03:08.754Z,191.25
2018-10-04T09:04:08.732Z,191.25
2018-10-04T09:05:08.694Z,191.25
2018-10-04T09:06:08.663Z,185.63
2018-10-04T09:07:08.690Z,185.63
2018-10-04T09:08:08.655Z,180.00
2018-10-04T09:09:08.584Z,180.00
2018-10-04T09:10:08.552Z,174.38
2018-10-04T09:11:09.643Z,168.75
2018-10-04T09:12:08.494Z,163.13
2018-10-04T09:13:08.471Z,157.50
2018-10-04T09:14:08.456Z,157.50
2018-10-04T09:15:09.463Z,151.88
2018-10-04T09:16:08.390Z,151.88
2018-10-04T09:17:08.456Z,151.88
2018-10-04T09:18:08.321Z,151.88
2018-10-04T09:19:08.306Z,151.88
2018-10-04T09:20:08.279Z,157.50
2018-10-04T09:21:08.376Z,163.13
2018-10-04T09:22:08.216Z,157.50
2018-10-04T09:23:08.289Z,163.13
2018-10-04T09:24:08.160Z,157.50
2018-10-04T09:25:08.195Z,151.88
2018-10-04T09:26:08.122Z,151.88
2018-10-04T09:27:08.229Z,157.50
2018-10-04T09:28:08.043Z,168.75
2018-10-04T09:29:08.226Z,174.38
2018-10-04T09:30:08.000Z,191.25
2018-10-04T09:31:10.102Z,191.25
2018-10-04T09:32:07.978Z,196.88
2018-10-04T09:33:07.945Z,196.88
2018-10-04T09:34:07.876Z,191.25
2018-10-04T09:35:07.968Z,191.25
2018-10-04T09:36:07.826Z,191.25
2018-10-04T09:37:07.875Z,185.63
2018-10-04T09:38:07.775Z,174.38
2018-10-04T09:39:07.783Z,168.75
2018-10-04T09:40:07.722Z,163.13
2018-10-04T09:41:07.802Z,157.50
2018-10-04T09:42:07.652Z,151.88
2018-10-04T09:43:07.708Z,146.25
2018-10-04T09:44:07.595Z,146.25
2018-10-04T09:45:07.622Z,140.63
2018-10-04T09:46:07.552Z,135.00
2018-10-04T09:47:07.651Z,135.00
2018-10-04T09:48:07.482Z,129.38
2018-10-04T09:49:07.542Z,129.38
2018-10-04T09:50:07.426Z,135.00
2018-10-04T09:51:07.485Z,146.25
2018-10-04T09:52:07.370Z,157.50
2018-10-04T09:53:07.468Z,168.75
2018-10-04T09:54:07.347Z,185.63
2018-10-04T09:55:07.378Z,202.50
2018-10-04T09:56:10.124Z,196.88
2018-10-04T09:57:07.362Z,213.75
2018-10-04T09:58:07.201Z,230.63
2018-10-04T09:59:07.368Z,230.63
2018-10-04T10:00:07.140Z,225.00
2018-10-04T10:01:07.283Z,219.38
2018-10-04T10:02:07.084Z,225.00
2018-10-04T10:03:08.220Z,230.63
2018-10-04T10:04:07.026Z,241.88
2018-10-04T10:05:09.150Z,236.25
2018-10-04T10:06:06.975Z,196.88
2018-10-04T10:07:07.117Z,202.50
2018-10-04T10:08:06.916Z,196.88
2018-10-04T10:09:07.030Z,208.13
2018-10-04T10:10:06.868Z,202.50
2018-10-04T10:11:07.044Z,196.88
2018-10-04T10:12:06.805Z,174.38
2018-10-04T10:13:06.950Z,174.38
2018-10-04T10:14:06.757Z,185.63
2018-10-04T10:15:06.869Z,191.25
2018-10-04T10:16:06.696Z,208.13
2018-10-04T10:17:06.890Z,213.75
2018-10-04T10:18:06.633Z,213.75
2018-10-04T10:19:06.801Z,213.75
2018-10-04T10:20:06.587Z,213.75
2018-10-04T10:21:06.618Z,219.38
2018-10-04T10:22:06.535Z,225.00
2018-10-04T10:23:06.502Z,225.00
2018-10-04T10:24:06.467Z,225.00
2018-10-04T10:25:06.451Z,225.00
2018-10-04T10:26:07.557Z,230.63
2018-10-04T10:27:06.413Z,236.25
2018-10-04T10:28:06.448Z,247.50
2018-10-04T10:29:06.325Z,258.75
2018-10-04T10:30:06.356Z,258.75
2018-10-04T10:31:06.276Z,258.75
2018-10-04T10:32:06.363Z,264.38
2018-10-04T10:33:06.217Z,264.38
2018-10-04T10:34:07.313Z,270.00
2018-10-04T10:35:06.162Z,275.63
2018-10-04T10:36:06.190Z,275.63
2018-10-04T10:37:06.108Z,275.63
2018-10-04T10:38:07.129Z,281.25
2018-10-04T10:39:06.053Z,281.25
2018-10-04T10:40:06.163Z,281.25
2018-10-04T10:41:06.023Z,275.63
2018-10-04T10:42:06.033Z,270.00
2018-10-04T10:43:05.945Z,275.63
2018-10-04T10:44:06.063Z,275.63
2018-10-04T10:45:05.883Z,275.63
2018-10-04T10:46:05.853Z,275.63
2018-10-04T10:47:05.832Z,275.63
2018-10-04T10:48:05.810Z,275.63
2018-10-04T10:49:05.791Z,275.63
2018-10-04T10:50:05.750Z,275.63
2018-10-04T10:51:05.719Z,281.25
2018-10-04T10:52:05.705Z,281.25
2018-10-04T10:53:05.661Z,281.25
2018-10-04T10:54:05.636Z,281.25
2018-10-04T10:55:05.609Z,292.50
2018-10-04T10:56:05.577Z,281.25
2018-10-04T10:57:05.555Z,281.25
2018-10-04T10:58:05.521Z,281.25
2018-10-04T10:59:05.492Z,275.63
2018-10-04T11:00:05.479Z,281.25
2018-10-04T11:01:05.480Z,286.88
2018-10-04T11:02:05.408Z,281.25
2018-10-04T11:03:05.393Z,286.88
2018-10-04T11:04:05.361Z,286.88
2018-10-04T11:05:05.369Z,286.88
2018-10-04T11:06:05.298Z,281.25
2018-10-04T11:07:05.397Z,286.88
2018-10-04T11:08:05.246Z,286.88
2018-10-04T11:09:05.290Z,286.88
2018-10-04T11:10:05.274Z,292.50
2018-10-04T11:11:05.223Z,286.88
2018-10-04T11:12:05.131Z,286.88
2018-10-04T11:13:05.215Z,292.50
2018-10-04T11:14:05.084Z,292.50
2018-10-04T11:15:05.128Z,292.50
2018-10-04T11:16:05.048Z,292.50
2018-10-04T11:17:05.066Z,292.50
2018-10-04T11:18:05.025Z,292.50
2018-10-04T11:19:05.034Z,292.50
2018-10-04T11:20:04.917Z,286.88
2018-10-04T11:21:04.946Z,281.25
2018-10-04T11:22:04.849Z,286.88
2018-10-04T11:23:04.861Z,281.25
2018-10-04T11:24:04.797Z,281.25
2018-10-04T11:25:04.872Z,275.63
2018-10-04T11:26:04.740Z,281.25
2018-10-04T11:27:04.779Z,281.25
2018-10-04T11:28:04.688Z,281.25
2018-10-04T11:29:04.718Z,281.25
2018-10-04T11:30:04.629Z,286.88
2018-10-04T11:31:04.710Z,286.88
2018-10-04T11:32:04.572Z,292.50
2018-10-04T11:33:04.712Z,292.50
2018-10-04T11:34:04.516Z,292.50
2018-10-04T11:35:05.564Z,292.50
2018-10-04T11:36:04.487Z,292.50
2018-10-04T11:37:04.549Z,298.13
2018-10-04T11:38:04.396Z,286.88
2018-10-04T11:39:04.483Z,286.88
2018-10-04T11:40:04.357Z,281.25
2018-10-04T11:41:04.328Z,281.25
2018-10-04T11:42:04.297Z,275.63
2018-10-04T11:43:04.267Z,275.63
2018-10-04T11:44:04.311Z,275.63
2018-10-04T11:45:04.311Z,264.38
2018-10-04T11:46:04.306Z,258.75
2018-10-04T11:47:04.152Z,264.38
2018-10-04T11:48:04.124Z,258.75
2018-10-04T11:49:04.104Z,258.75
2018-10-04T11:50:04.083Z,258.75
2018-10-04T11:51:04.040Z,264.38
2018-10-04T11:52:04.016Z,270.00
2018-10-04T11:53:04.105Z,270.00
2018-10-04T11:54:04.159Z,281.25
2018-10-04T11:55:03.926Z,275.63
2018-10-04T11:56:04.037Z,286.88
2018-10-04T11:57:04.113Z,286.88
2018-10-04T11:58:03.838Z,281.25
2018-10-04T11:59:03.821Z,281.25
2018-10-04T12:00:03.937Z,275.63
2018-10-04T12:01:03.820Z,264.38
2018-10-04T12:02:03.737Z,253.13
2018-10-04T12:03:03.709Z,258.75
2018-10-04T12:04:03.681Z,281.25
2018-10-04T12:05:03.656Z,275.63
2018-10-04T12:06:03.625Z,275.63
2018-10-04T12:07:03.624Z,270.00
2018-10-04T12:08:03.594Z,264.38
2018-10-04T12:09:03.557Z,258.75
2018-10-04T12:10:03.625Z,258.75
2018-10-04T12:11:03.495Z,258.75
2018-10-04T12:12:03.544Z,264.38
2018-10-04T12:13:03.510Z,264.38
2018-10-04T12:14:03.435Z,264.38
2018-10-04T12:15:03.379Z,275.63
2018-10-04T12:16:03.451Z,275.63
2018-10-04T12:17:03.337Z,270.00
2018-10-04T12:18:03.359Z,270.00
2018-10-04T12:19:03.285Z,264.38
2018-10-04T12:20:03.372Z,258.75
2018-10-04T12:21:03.211Z,264.38
2018-10-04T12:22:03.283Z,270.00
2018-10-04T12:23:03.186Z,270.00
2018-10-04T12:24:03.194Z,270.00
2018-10-04T12:25:03.198Z,270.00
2018-10-04T12:26:03.109Z,258.75
2018-10-04T12:27:03.044Z,247.50
2018-10-04T12:28:03.128Z,247.50
2018-10-04T12:29:03.000Z,247.50
2018-10-04T12:30:03.034Z,253.13
2018-10-04T12:31:03.078Z,264.38
2018-10-04T12:32:02.936Z,258.75
2018-10-04T12:33:02.884Z,258.75
2018-10-04T12:34:02.962Z,258.75
2018-10-04T12:35:02.823Z,258.75
2018-10-04T12:36:02.923Z,253.13
2018-10-04T12:37:02.769Z,258.75
2018-10-04T12:38:02.781Z,258.75
2018-10-04T12:39:02.715Z,258.75
2018-10-04T12:40:02.784Z,236.25
2018-10-04T12:41:02.670Z,219.38
2018-10-04T12:42:02.793Z,213.75
2018-10-04T12:43:02.615Z,219.38
2018-10-04T12:44:02.664Z,219.38
2018-10-04T12:45:02.569Z,236.25
2018-10-04T12:46:02.616Z,219.38
2018-10-04T12:47:02.513Z,208.13
2018-10-04T12:48:02.532Z,219.38
2018-10-04T12:49:02.468Z,225.00
2018-10-04T12:50:02.534Z,225.00
2018-10-04T12:51:02.395Z,230.63
2018-10-04T12:52:02.483Z,225.00
2018-10-04T12:53:02.349Z,213.75
2018-10-04T12:54:02.362Z,208.13
2018-10-04T12:55:02.292Z,208.13
2018-10-04T12:56:02.276Z,219.38
2018-10-04T12:57:02.356Z,241.88
2018-10-04T12:58:02.224Z,241.88